sensor_id;sensor_type;location;lat;lon;timestamp;pressure;altitude;pressure_sealevel;temperature
70333;BMP280;57747;43.548;-5.704;2022-10-16T00:01:08;101207.00;;;18.33
70333;BMP280;57747;43.548;-5.704;2022-10-16T00:03:34;101204.59;;;18.14
70333;BMP280;57747;43.548;-5.704;2022-10-16T00:06:00;101206.53;;;18.13
70333;BMP280;57747;43.548;-5.704;2022-10-16T00:08:27;101206.84;;;18.12
70333;BMP280;57747;43.548;-5.704;2022-10-16T00:10:59;101212.09;;;18.08
70333;BMP280;57747;43.548;-5.704;2022-10-16T00:13:24;101209.56;;;18.12
70333;BMP280;57747;43.548;-5.704;2022-10-16T00:15:50;101197.41;;;18.27
70333;BMP280;57747;43.548;-5.704;2022-10-16T00:18:15;101203.97;;;18.17
70333;BMP280;57747;43.548;-5.704;2022-10-16T00:20:41;101188.63;;;18.03
70333;BMP280;57747;43.548;-5.704;2022-10-16T00:23:06;101188.13;;;18.01
70333;BMP280;57747;43.548;-5.704;2022-10-16T00:25:32;101193.09;;;17.99
70333;BMP280;57747;43.548;-5.704;2022-10-16T00:28:00;101173.00;;;17.92
70333;BMP280;57747;43.548;-5.704;2022-10-16T00:30:25;101167.88;;;17.81
70333;BMP280;57747;43.548;-5.704;2022-10-16T00:32:53;101180.81;;;17.84
70333;BMP280;57747;43.548;-5.704;2022-10-16T00:35:18;101184.44;;;17.71
70333;BMP280;57747;43.548;-5.704;2022-10-16T00:37:44;101176.97;;;17.85
70333;BMP280;57747;43.548;-5.704;2022-10-16T00:40:10;101168.84;;;17.85
70333;BMP280;57747;43.548;-5.704;2022-10-16T00:42:35;101174.25;;;17.59
70333;BMP280;57747;43.548;-5.704;2022-10-16T00:45:03;101172.63;;;17.50
70333;BMP280;57747;43.548;-5.704;2022-10-16T00:47:34;101168.31;;;17.48
70333;BMP280;57747;43.548;-5.704;2022-10-16T00:50:13;101166.41;;;17.49
70333;BMP280;57747;43.548;-5.704;2022-10-16T00:52:44;101157.66;;;17.61
70333;BMP280;57747;43.548;-5.704;2022-10-16T00:55:11;101156.38;;;17.58
70333;BMP280;57747;43.548;-5.704;2022-10-16T00:57:37;101156.31;;;17.41
70333;BMP280;57747;43.548;-5.704;2022-10-16T01:00:25;101165.47;;;17.54
70333;BMP280;57747;43.548;-5.704;2022-10-16T01:02:59;101154.41;;;17.50
70333;BMP280;57747;43.548;-5.704;2022-10-16T01:05:47;101142.25;;;17.21
70333;BMP280;57747;43.548;-5.704;2022-10-16T01:09:13;101145.16;;;16.93
70333;BMP280;57747;43.548;-5.704;2022-10-16T01:11:22;101145.03;;;16.99
70333;BMP280;57747;43.548;-5.704;2022-10-16T01:13:53;101135.50;;;17.01
70333;BMP280;57747;43.548;-5.704;2022-10-16T01:16:49;101142.59;;;16.88
70333;BMP280;57747;43.548;-5.704;2022-10-16T01:19:26;101133.84;;;16.91
70333;BMP280;57747;43.548;-5.704;2022-10-16T01:21:58;101126.81;;;16.90
70333;BMP280;57747;43.548;-5.704;2022-10-16T01:27:14;101135.03;;;16.23
70333;BMP280;57747;43.548;-5.704;2022-10-16T01:35:25;101133.53;;;16.62
70333;BMP280;57747;43.548;-5.704;2022-10-16T01:40:31;101113.44;;;16.85
70333;BMP280;57747;43.548;-5.704;2022-10-16T01:43:27;101120.00;;;16.93
70333;BMP280;57747;43.548;-5.704;2022-10-16T01:45:51;101123.69;;;16.97
70333;BMP280;57747;43.548;-5.704;2022-10-16T01:48:19;101125.66;;;16.83
70333;BMP280;57747;43.548;-5.704;2022-10-16T01:50:54;101120.63;;;16.90
70333;BMP280;57747;43.548;-5.704;2022-10-16T01:53:22;101117.91;;;16.90
70333;BMP280;57747;43.548;-5.704;2022-10-16T01:55:49;101123.34;;;16.99
70333;BMP280;57747;43.548;-5.704;2022-10-16T01:58:15;101115.50;;;16.88
70333;BMP280;57747;43.548;-5.704;2022-10-16T02:00:44;101108.19;;;16.89
70333;BMP280;57747;43.548;-5.704;2022-10-16T02:03:12;101110.94;;;16.66
70333;BMP280;57747;43.548;-5.704;2022-10-16T02:05:56;101109.66;;;16.64
70333;BMP280;57747;43.548;-5.704;2022-10-16T02:08:27;101112.00;;;16.56
70333;BMP280;57747;43.548;-5.704;2022-10-16T02:10:57;101113.31;;;16.36
70333;BMP280;57747;43.548;-5.704;2022-10-16T02:13:29;101112.28;;;16.46
70333;BMP280;57747;43.548;-5.704;2022-10-16T02:15:55;101095.31;;;16.54
70333;BMP280;57747;43.548;-5.704;2022-10-16T02:18:21;101094.19;;;16.55
70333;BMP280;57747;43.548;-5.704;2022-10-16T02:20:59;101083.81;;;16.49
70333;BMP280;57747;43.548;-5.704;2022-10-16T02:23:34;101091.28;;;16.43
70333;BMP280;57747;43.548;-5.704;2022-10-16T02:26:03;101078.69;;;16.47
70333;BMP280;57747;43.548;-5.704;2022-10-16T02:28:43;101080.00;;;16.50
70333;BMP280;57747;43.548;-5.704;2022-10-16T02:31:12;101080.47;;;16.52
70333;BMP280;57747;43.548;-5.704;2022-10-16T02:33:45;101075.81;;;16.44
70333;BMP280;57747;43.548;-5.704;2022-10-16T02:36:13;101070.84;;;16.37
70333;BMP280;57747;43.548;-5.704;2022-10-16T02:38:40;101062.75;;;16.37
70333;BMP280;57747;43.548;-5.704;2022-10-16T02:41:05;101063.72;;;16.18
70333;BMP280;57747;43.548;-5.704;2022-10-16T02:43:31;101060.72;;;16.20
70333;BMP280;57747;43.548;-5.704;2022-10-16T02:45:59;101059.84;;;16.33
70333;BMP280;57747;43.548;-5.704;2022-10-16T02:48:25;101058.69;;;16.26
70333;BMP280;57747;43.548;-5.704;2022-10-16T02:50:53;101062.00;;;16.23
70333;BMP280;57747;43.548;-5.704;2022-10-16T02:53:19;101056.84;;;16.12
70333;BMP280;57747;43.548;-5.704;2022-10-16T02:55:44;101062.63;;;16.19
70333;BMP280;57747;43.548;-5.704;2022-10-16T02:58:10;101055.34;;;16.29
70333;BMP280;57747;43.548;-5.704;2022-10-16T03:00:35;101047.59;;;16.36
70333;BMP280;57747;43.548;-5.704;2022-10-16T03:03:01;101041.56;;;16.39
70333;BMP280;57747;43.548;-5.704;2022-10-16T03:05:26;101040.28;;;16.36
70333;BMP280;57747;43.548;-5.704;2022-10-16T03:07:55;101032.53;;;16.44
70333;BMP280;57747;43.548;-5.704;2022-10-16T03:10:21;101030.22;;;16.28
70333;BMP280;57747;43.548;-5.704;2022-10-16T03:12:46;101024.63;;;16.25
70333;BMP280;57747;43.548;-5.704;2022-10-16T03:15:14;101029.03;;;16.21
70333;BMP280;57747;43.548;-5.704;2022-10-16T03:17:40;101035.75;;;16.00
70333;BMP280;57747;43.548;-5.704;2022-10-16T03:20:05;101029.75;;;16.04
70333;BMP280;57747;43.548;-5.704;2022-10-16T03:22:31;101025.38;;;15.94
70333;BMP280;57747;43.548;-5.704;2022-10-16T03:24:57;101019.63;;;15.95
70333;BMP280;57747;43.548;-5.704;2022-10-16T03:27:22;101017.06;;;15.90
70333;BMP280;57747;43.548;-5.704;2022-10-16T03:29:48;101012.47;;;15.91
70333;BMP280;57747;43.548;-5.704;2022-10-16T03:32:14;101017.88;;;15.91
70333;BMP280;57747;43.548;-5.704;2022-10-16T03:34:41;101014.00;;;16.06
70333;BMP280;57747;43.548;-5.704;2022-10-16T03:37:07;101012.78;;;16.12
70333;BMP280;57747;43.548;-5.704;2022-10-16T03:39:33;101009.41;;;16.06
70333;BMP280;57747;43.548;-5.704;2022-10-16T03:41:58;101009.72;;;16.05
70333;BMP280;57747;43.548;-5.704;2022-10-16T03:44:24;101011.06;;;15.93
70333;BMP280;57747;43.548;-5.704;2022-10-16T03:46:49;101009.41;;;15.84
70333;BMP280;57747;43.548;-5.704;2022-10-16T03:49:15;101000.09;;;15.67
70333;BMP280;57747;43.548;-5.704;2022-10-16T03:51:40;100996.75;;;15.70
70333;BMP280;57747;43.548;-5.704;2022-10-16T03:54:06;100987.66;;;15.66
70333;BMP280;57747;43.548;-5.704;2022-10-16T03:56:31;100985.09;;;15.61
70333;BMP280;57747;43.548;-5.704;2022-10-16T03:58:57;100987.28;;;15.59
70333;BMP280;57747;43.548;-5.704;2022-10-16T04:01:22;100980.81;;;15.46
70333;BMP280;57747;43.548;-5.704;2022-10-16T04:03:51;100987.56;;;15.35
70333;BMP280;57747;43.548;-5.704;2022-10-16T04:06:16;100987.78;;;15.61
70333;BMP280;57747;43.548;-5.704;2022-10-16T04:08:43;100990.63;;;15.78
70333;BMP280;57747;43.548;-5.704;2022-10-16T04:11:09;100979.03;;;15.87
70333;BMP280;57747;43.548;-5.704;2022-10-16T04:13:37;100987.66;;;15.89
70333;BMP280;57747;43.548;-5.704;2022-10-16T04:16:05;100972.53;;;15.88
70333;BMP280;57747;43.548;-5.704;2022-10-16T04:18:31;100983.03;;;15.89
70333;BMP280;57747;43.548;-5.704;2022-10-16T04:20:57;100979.03;;;15.87
70333;BMP280;57747;43.548;-5.704;2022-10-16T04:23:29;100979.19;;;15.81
70333;BMP280;57747;43.548;-5.704;2022-10-16T04:25:57;100976.50;;;15.68
70333;BMP280;57747;43.548;-5.704;2022-10-16T04:28:23;100969.59;;;15.75
70333;BMP280;57747;43.548;-5.704;2022-10-16T04:30:49;100965.59;;;15.73
70333;BMP280;57747;43.548;-5.704;2022-10-16T04:33:16;100981.22;;;15.62
70333;BMP280;57747;43.548;-5.704;2022-10-16T04:35:42;100975.38;;;15.60
70333;BMP280;57747;43.548;-5.704;2022-10-16T04:38:08;100970.63;;;15.66
70333;BMP280;57747;43.548;-5.704;2022-10-16T04:40:33;100970.88;;;15.55
70333;BMP280;57747;43.548;-5.704;2022-10-16T04:43:04;100965.53;;;15.64
70333;BMP280;57747;43.548;-5.704;2022-10-16T04:45:31;100957.00;;;15.71
70333;BMP280;57747;43.548;-5.704;2022-10-16T04:47:57;100962.81;;;15.64
70333;BMP280;57747;43.548;-5.704;2022-10-16T04:50:23;100960.50;;;15.71
70333;BMP280;57747;43.548;-5.704;2022-10-16T04:52:49;100959.69;;;15.71
70333;BMP280;57747;43.548;-5.704;2022-10-16T04:55:17;100954.53;;;15.60
70333;BMP280;57747;43.548;-5.704;2022-10-16T04:57:42;100952.31;;;15.62
70333;BMP280;57747;43.548;-5.704;2022-10-16T05:00:08;100947.97;;;15.75
70333;BMP280;57747;43.548;-5.704;2022-10-16T05:02:36;100953.09;;;15.86
70333;BMP280;57747;43.548;-5.704;2022-10-16T05:05:02;100951.88;;;15.69
70333;BMP280;57747;43.548;-5.704;2022-10-16T05:07:27;100950.75;;;15.25
70333;BMP280;57747;43.548;-5.704;2022-10-16T05:09:53;100952.38;;;15.12
70333;BMP280;57747;43.548;-5.704;2022-10-16T05:12:21;100940.44;;;15.27
70333;BMP280;57747;43.548;-5.704;2022-10-16T05:14:46;100957.28;;;15.46
70333;BMP280;57747;43.548;-5.704;2022-10-16T05:17:14;100945.38;;;15.48
70333;BMP280;57747;43.548;-5.704;2022-10-16T05:19:42;100949.44;;;15.59
70333;BMP280;57747;43.548;-5.704;2022-10-16T05:22:10;100949.31;;;15.64
70333;BMP280;57747;43.548;-5.704;2022-10-16T05:24:35;100947.59;;;15.68
70333;BMP280;57747;43.548;-5.704;2022-10-16T05:27:03;100946.56;;;15.78
70333;BMP280;57747;43.548;-5.704;2022-10-16T05:29:29;100947.84;;;15.80
70333;BMP280;57747;43.548;-5.704;2022-10-16T05:31:59;100944.34;;;15.80
70333;BMP280;57747;43.548;-5.704;2022-10-16T05:34:25;100941.22;;;15.64
70333;BMP280;57747;43.548;-5.704;2022-10-16T05:36:53;100952.81;;;15.64
70333;BMP280;57747;43.548;-5.704;2022-10-16T05:39:19;100960.25;;;15.59
70333;BMP280;57747;43.548;-5.704;2022-10-16T05:41:44;100962.00;;;15.55
70333;BMP280;57747;43.548;-5.704;2022-10-16T05:44:10;100969.75;;;15.56
70333;BMP280;57747;43.548;-5.704;2022-10-16T05:46:35;100970.28;;;15.58
70333;BMP280;57747;43.548;-5.704;2022-10-16T05:49:01;100976.97;;;15.61
70333;BMP280;57747;43.548;-5.704;2022-10-16T05:51:26;100978.19;;;15.55
70333;BMP280;57747;43.548;-5.704;2022-10-16T05:53:52;100972.09;;;15.49
70333;BMP280;57747;43.548;-5.704;2022-10-16T05:56:18;100980.56;;;15.56
70333;BMP280;57747;43.548;-5.704;2022-10-16T05:58:44;100979.31;;;15.40
70333;BMP280;57747;43.548;-5.704;2022-10-16T06:01:20;100990.91;;;15.40
70333;BMP280;57747;43.548;-5.704;2022-10-16T06:03:50;100995.53;;;15.40
70333;BMP280;57747;43.548;-5.704;2022-10-16T06:06:19;100991.94;;;15.31
70333;BMP280;57747;43.548;-5.704;2022-10-16T06:08:46;100980.25;;;15.35
70333;BMP280;57747;43.548;-5.704;2022-10-16T06:11:14;100975.47;;;15.32
70333;BMP280;57747;43.548;-5.704;2022-10-16T06:13:40;100970.13;;;15.41
70333;BMP280;57747;43.548;-5.704;2022-10-16T06:16:13;100979.53;;;15.43
70333;BMP280;57747;43.548;-5.704;2022-10-16T06:18:39;100974.28;;;15.47
70333;BMP280;57747;43.548;-5.704;2022-10-16T06:21:09;100975.91;;;15.48
70333;BMP280;57747;43.548;-5.704;2022-10-16T06:23:35;100972.28;;;15.53
70333;BMP280;57747;43.548;-5.704;2022-10-16T06:26:08;100975.50;;;15.55
70333;BMP280;57747;43.548;-5.704;2022-10-16T06:28:34;100977.94;;;15.65
70333;BMP280;57747;43.548;-5.704;2022-10-16T06:31:00;100975.13;;;15.70
70333;BMP280;57747;43.548;-5.704;2022-10-16T06:33:26;100973.75;;;15.59
70333;BMP280;57747;43.548;-5.704;2022-10-16T06:35:55;100978.88;;;15.60
70333;BMP280;57747;43.548;-5.704;2022-10-16T06:38:27;100980.78;;;15.60
70333;BMP280;57747;43.548;-5.704;2022-10-16T06:40:53;100976.59;;;15.54
70333;BMP280;57747;43.548;-5.704;2022-10-16T06:43:19;100969.06;;;15.51
70333;BMP280;57747;43.548;-5.704;2022-10-16T06:45:53;100962.91;;;15.50
70333;BMP280;57747;43.548;-5.704;2022-10-16T06:48:20;100961.09;;;15.45
70333;BMP280;57747;43.548;-5.704;2022-10-16T06:53:38;100963.59;;;15.42
70333;BMP280;57747;43.548;-5.704;2022-10-16T06:56:13;100962.63;;;15.38
70333;BMP280;57747;43.548;-5.704;2022-10-16T06:58:42;100957.22;;;15.38
70333;BMP280;57747;43.548;-5.704;2022-10-16T07:01:07;100958.38;;;15.45
70333;BMP280;57747;43.548;-5.704;2022-10-16T07:03:33;100964.53;;;15.37
70333;BMP280;57747;43.548;-5.704;2022-10-16T07:06:04;100964.72;;;15.41
70333;BMP280;57747;43.548;-5.704;2022-10-16T07:08:36;100951.69;;;15.43
70333;BMP280;57747;43.548;-5.704;2022-10-16T07:11:03;100954.28;;;15.48
70333;BMP280;57747;43.548;-5.704;2022-10-16T07:13:33;100947.03;;;15.57
70333;BMP280;57747;43.548;-5.704;2022-10-16T07:16:05;100939.28;;;15.64
70333;BMP280;57747;43.548;-5.704;2022-10-16T07:18:36;100943.19;;;15.72
70333;BMP280;57747;43.548;-5.704;2022-10-16T07:21:07;100945.63;;;15.82
70333;BMP280;57747;43.548;-5.704;2022-10-16T07:23:33;100949.31;;;15.87
70333;BMP280;57747;43.548;-5.704;2022-10-16T07:25:59;100947.25;;;15.84
70333;BMP280;57747;43.548;-5.704;2022-10-16T07:28:24;100947.47;;;15.96
70333;BMP280;57747;43.548;-5.704;2022-10-16T07:30:50;100946.78;;;15.90
70333;BMP280;57747;43.548;-5.704;2022-10-16T07:33:18;100950.56;;;16.12
70333;BMP280;57747;43.548;-5.704;2022-10-16T07:35:53;100960.63;;;16.20
70333;BMP280;57747;43.548;-5.704;2022-10-16T07:38:20;100958.16;;;16.32
70333;BMP280;57747;43.548;-5.704;2022-10-16T07:40:46;100959.09;;;16.36
70333;BMP280;57747;43.548;-5.704;2022-10-16T07:43:12;100964.81;;;16.26
70333;BMP280;57747;43.548;-5.704;2022-10-16T07:45:48;100963.72;;;16.36
70333;BMP280;57747;43.548;-5.704;2022-10-16T07:48:15;100965.72;;;16.22
70333;BMP280;57747;43.548;-5.704;2022-10-16T07:50:41;100966.56;;;16.31
70333;BMP280;57747;43.548;-5.704;2022-10-16T07:53:10;100971.47;;;16.29
70333;BMP280;57747;43.548;-5.704;2022-10-16T07:55:36;100971.31;;;16.25
70333;BMP280;57747;43.548;-5.704;2022-10-16T07:58:04;100973.38;;;16.19
70333;BMP280;57747;43.548;-5.704;2022-10-16T08:00:30;100971.97;;;16.22
70333;BMP280;57747;43.548;-5.704;2022-10-16T08:03:00;100974.31;;;16.24
70333;BMP280;57747;43.548;-5.704;2022-10-16T08:05:31;100980.75;;;16.36
70333;BMP280;57747;43.548;-5.704;2022-10-16T08:07:57;100987.63;;;16.43
70333;BMP280;57747;43.548;-5.704;2022-10-16T08:10:25;100982.72;;;16.45
70333;BMP280;57747;43.548;-5.704;2022-10-16T08:12:52;100986.84;;;16.42
70333;BMP280;57747;43.548;-5.704;2022-10-16T08:15:20;100985.53;;;16.40
70333;BMP280;57747;43.548;-5.704;2022-10-16T08:17:57;100979.50;;;16.43
70333;BMP280;57747;43.548;-5.704;2022-10-16T08:20:23;100977.47;;;16.48
70333;BMP280;57747;43.548;-5.704;2022-10-16T08:22:51;100984.34;;;16.54
70333;BMP280;57747;43.548;-5.704;2022-10-16T08:25:19;100978.56;;;16.47
70333;BMP280;57747;43.548;-5.704;2022-10-16T08:27:44;100975.84;;;16.39
70333;BMP280;57747;43.548;-5.704;2022-10-16T08:30:10;100962.56;;;16.68
70333;BMP280;57747;43.548;-5.704;2022-10-16T08:32:36;100962.06;;;16.58
70333;BMP280;57747;43.548;-5.704;2022-10-16T08:35:04;100968.75;;;16.60
70333;BMP280;57747;43.548;-5.704;2022-10-16T08:37:33;100968.03;;;16.37
70333;BMP280;57747;43.548;-5.704;2022-10-16T08:40:02;100967.22;;;16.77
70333;BMP280;57747;43.548;-5.704;2022-10-16T08:42:46;100971.38;;;17.00
70333;BMP280;57747;43.548;-5.704;2022-10-16T08:50:28;100975.88;;;17.31
70333;BMP280;57747;43.548;-5.704;2022-10-16T08:52:55;100972.50;;;17.34
70333;BMP280;57747;43.548;-5.704;2022-10-16T08:55:34;100975.88;;;17.22
70333;BMP280;57747;43.548;-5.704;2022-10-16T08:58:12;100968.41;;;17.37
70333;BMP280;57747;43.548;-5.704;2022-10-16T09:00:39;100968.88;;;17.39
70333;BMP280;57747;43.548;-5.704;2022-10-16T09:03:21;100966.16;;;17.39
70333;BMP280;57747;43.548;-5.704;2022-10-16T09:05:57;100966.31;;;17.42
70333;BMP280;57747;43.548;-5.704;2022-10-16T09:16:48;100968.78;;;17.82
70333;BMP280;57747;43.548;-5.704;2022-10-16T09:19:24;100965.66;;;18.10
70333;BMP280;57747;43.548;-5.704;2022-10-16T09:21:51;100957.72;;;18.05
70333;BMP280;57747;43.548;-5.704;2022-10-16T09:24:21;100965.34;;;18.20
70333;BMP280;57747;43.548;-5.704;2022-10-16T09:26:52;100950.28;;;18.32
70333;BMP280;57747;43.548;-5.704;2022-10-16T09:29:19;100959.34;;;18.36
70333;BMP280;57747;43.548;-5.704;2022-10-16T09:31:46;100957.88;;;18.38
70333;BMP280;57747;43.548;-5.704;2022-10-16T09:34:32;100949.13;;;18.42
70333;BMP280;57747;43.548;-5.704;2022-10-16T09:37:03;100948.06;;;18.55
70333;BMP280;57747;43.548;-5.704;2022-10-16T09:39:29;100954.13;;;18.61
70333;BMP280;57747;43.548;-5.704;2022-10-16T09:41:55;100957.69;;;18.73
70333;BMP280;57747;43.548;-5.704;2022-10-16T09:44:26;100953.81;;;19.04
70333;BMP280;57747;43.548;-5.704;2022-10-16T09:47:15;100950.03;;;19.18
70333;BMP280;57747;43.548;-5.704;2022-10-16T09:50:00;100950.78;;;19.39
70333;BMP280;57747;43.548;-5.704;2022-10-16T09:52:31;100950.50;;;19.65
70333;BMP280;57747;43.548;-5.704;2022-10-16T09:55:00;100952.47;;;19.89
70333;BMP280;57747;43.548;-5.704;2022-10-16T09:57:29;100950.22;;;20.16
70333;BMP280;57747;43.548;-5.704;2022-10-16T09:59:57;100939.00;;;20.30
70333;BMP280;57747;43.548;-5.704;2022-10-16T10:04:53;100935.00;;;20.40
70333;BMP280;57747;43.548;-5.704;2022-10-16T10:07:29;100937.03;;;20.55
70333;BMP280;57747;43.548;-5.704;2022-10-16T10:10:00;100942.38;;;20.27
70333;BMP280;57747;43.548;-5.704;2022-10-16T10:12:33;100936.84;;;20.23
70333;BMP280;57747;43.548;-5.704;2022-10-16T10:15:06;100940.13;;;20.04
70333;BMP280;57747;43.548;-5.704;2022-10-16T10:17:32;100933.69;;;20.21
70333;BMP280;57747;43.548;-5.704;2022-10-16T10:20:00;100939.59;;;20.64
70333;BMP280;57747;43.548;-5.704;2022-10-16T10:22:31;100926.41;;;21.07
70333;BMP280;57747;43.548;-5.704;2022-10-16T10:25:01;100924.53;;;21.39
70333;BMP280;57747;43.548;-5.704;2022-10-16T10:35:25;100919.53;;;21.41
70333;BMP280;57747;43.548;-5.704;2022-10-16T10:40:51;100913.09;;;21.49
70333;BMP280;57747;43.548;-5.704;2022-10-16T10:43:52;100914.59;;;21.62
70333;BMP280;57747;43.548;-5.704;2022-10-16T10:46:41;100920.72;;;21.91
70333;BMP280;57747;43.548;-5.704;2022-10-16T11:05:43;100906.84;;;21.49
70333;BMP280;57747;43.548;-5.704;2022-10-16T11:08:19;100906.34;;;21.43
70333;BMP280;57747;43.548;-5.704;2022-10-16T11:10:57;100897.88;;;21.32
70333;BMP280;57747;43.548;-5.704;2022-10-16T11:16:13;100914.66;;;20.90
70333;BMP280;57747;43.548;-5.704;2022-10-16T11:18:50;100914.28;;;20.76
70333;BMP280;57747;43.548;-5.704;2022-10-16T11:21:21;100904.06;;;21.01
70333;BMP280;57747;43.548;-5.704;2022-10-16T11:26:25;100913.94;;;20.77
70333;BMP280;57747;43.548;-5.704;2022-10-16T11:28:56;100904.50;;;20.75
70333;BMP280;57747;43.548;-5.704;2022-10-16T11:31:29;100899.97;;;21.07
70333;BMP280;57747;43.548;-5.704;2022-10-16T11:36:51;100889.78;;;21.20
70333;BMP280;57747;43.548;-5.704;2022-10-16T11:39:28;100890.66;;;21.40
70333;BMP280;57747;43.548;-5.704;2022-10-16T11:41:59;100896.28;;;21.47
70333;BMP280;57747;43.548;-5.704;2022-10-16T11:50:03;100883.72;;;21.58
70333;BMP280;57747;43.548;-5.704;2022-10-16T11:52:52;100879.88;;;21.79
70333;BMP280;57747;43.548;-5.704;2022-10-16T11:55:26;100875.81;;;22.05
70333;BMP280;57747;43.548;-5.704;2022-10-16T11:58:06;100885.34;;;21.95
70333;BMP280;57747;43.548;-5.704;2022-10-16T12:00:47;100877.22;;;22.34
70333;BMP280;57747;43.548;-5.704;2022-10-16T12:06:06;100875.34;;;22.77
70333;BMP280;57747;43.548;-5.704;2022-10-16T12:08:34;100869.94;;;23.77
70333;BMP280;57747;43.548;-5.704;2022-10-16T12:11:09;100871.97;;;23.30
70333;BMP280;57747;43.548;-5.704;2022-10-16T12:13:40;100865.09;;;22.93
70333;BMP280;57747;43.548;-5.704;2022-10-16T12:18:41;100856.97;;;22.77
70333;BMP280;57747;43.548;-5.704;2022-10-16T12:21:11;100862.44;;;23.20
70333;BMP280;57747;43.548;-5.704;2022-10-16T12:23:52;100853.13;;;22.00
70333;BMP280;57747;43.548;-5.704;2022-10-16T12:26:37;100863.38;;;22.07
70333;BMP280;57747;43.548;-5.704;2022-10-16T12:31:47;100856.66;;;22.21
70333;BMP280;57747;43.548;-5.704;2022-10-16T12:34:28;100849.69;;;22.23
70333;BMP280;57747;43.548;-5.704;2022-10-16T12:37:18;100847.84;;;21.92
70333;BMP280;57747;43.548;-5.704;2022-10-16T12:39:49;100852.28;;;21.80
70333;BMP280;57747;43.548;-5.704;2022-10-16T12:42:34;100871.31;;;21.77
70333;BMP280;57747;43.548;-5.704;2022-10-16T12:45:00;100864.94;;;21.73
70333;BMP280;57747;43.548;-5.704;2022-10-16T12:49:58;100868.97;;;20.99
70333;BMP280;57747;43.548;-5.704;2022-10-16T12:54:58;100869.72;;;21.44
70333;BMP280;57747;43.548;-5.704;2022-10-16T13:01:23;100897.84;;;21.96
70333;BMP280;57747;43.548;-5.704;2022-10-16T13:06:53;100898.13;;;21.59
70333;BMP280;57747;43.548;-5.704;2022-10-16T13:12:15;100908.84;;;21.99
70333;BMP280;57747;43.548;-5.704;2022-10-16T13:15:06;100898.75;;;21.36
70333;BMP280;57747;43.548;-5.704;2022-10-16T13:17:46;100910.38;;;21.49
70333;BMP280;57747;43.548;-5.704;2022-10-16T13:28:32;100898.84;;;21.40
70333;BMP280;57747;43.548;-5.704;2022-10-16T13:30:59;100909.13;;;21.31
70333;BMP280;57747;43.548;-5.704;2022-10-16T13:33:36;100898.84;;;21.56
70333;BMP280;57747;43.548;-5.704;2022-10-16T13:36:03;100900.19;;;21.78
70333;BMP280;57747;43.548;-5.704;2022-10-16T13:38:32;100913.09;;;21.97
70333;BMP280;57747;43.548;-5.704;2022-10-16T13:41:03;100923.28;;;22.00
70333;BMP280;57747;43.548;-5.704;2022-10-16T13:46:11;100922.41;;;21.96
70333;BMP280;57747;43.548;-5.704;2022-10-16T13:48:37;100911.34;;;21.73
70333;BMP280;57747;43.548;-5.704;2022-10-16T13:51:20;100901.56;;;21.72
70333;BMP280;57747;43.548;-5.704;2022-10-16T13:53:48;100904.06;;;22.12
70333;BMP280;57747;43.548;-5.704;2022-10-16T13:56:41;100902.28;;;21.53
70333;BMP280;57747;43.548;-5.704;2022-10-16T13:59:34;100906.88;;;21.65
70333;BMP280;57747;43.548;-5.704;2022-10-16T14:02:08;100899.19;;;21.70
70333;BMP280;57747;43.548;-5.704;2022-10-16T14:04:39;100903.09;;;21.69
70333;BMP280;57747;43.548;-5.704;2022-10-16T14:07:04;100905.41;;;21.23
70333;BMP280;57747;43.548;-5.704;2022-10-16T14:09:30;100906.53;;;21.66
70333;BMP280;57747;43.548;-5.704;2022-10-16T14:12:01;100903.16;;;21.73
70333;BMP280;57747;43.548;-5.704;2022-10-16T14:14:40;100891.81;;;21.39
70333;BMP280;57747;43.548;-5.704;2022-10-16T14:17:22;100896.19;;;21.75
70333;BMP280;57747;43.548;-5.704;2022-10-16T14:19:51;100897.38;;;21.74
70333;BMP280;57747;43.548;-5.704;2022-10-16T14:22:30;100893.63;;;21.83
70333;BMP280;57747;43.548;-5.704;2022-10-16T14:24:57;100882.66;;;21.63
70333;BMP280;57747;43.548;-5.704;2022-10-16T14:27:34;100887.81;;;21.04
70333;BMP280;57747;43.548;-5.704;2022-10-16T14:30:26;100883.06;;;21.17
70333;BMP280;57747;43.548;-5.704;2022-10-16T14:33:18;100874.19;;;21.04
70333;BMP280;57747;43.548;-5.704;2022-10-16T14:35:45;100899.63;;;21.40
70333;BMP280;57747;43.548;-5.704;2022-10-16T14:38:19;100899.28;;;21.26
70333;BMP280;57747;43.548;-5.704;2022-10-16T14:40:49;100918.66;;;21.09
70333;BMP280;57747;43.548;-5.704;2022-10-16T14:43:31;100908.34;;;20.86
70333;BMP280;57747;43.548;-5.704;2022-10-16T14:45:57;100922.78;;;21.02
70333;BMP280;57747;43.548;-5.704;2022-10-16T14:48:25;100912.66;;;20.87
70333;BMP280;57747;43.548;-5.704;2022-10-16T14:50:55;100907.78;;;20.80
70333;BMP280;57747;43.548;-5.704;2022-10-16T14:53:20;100914.31;;;20.63
70333;BMP280;57747;43.548;-5.704;2022-10-16T14:55:49;100922.16;;;20.65
70333;BMP280;57747;43.548;-5.704;2022-10-16T14:58:22;100923.09;;;20.85
70333;BMP280;57747;43.548;-5.704;2022-10-16T15:00:48;100907.66;;;20.77
70333;BMP280;57747;43.548;-5.704;2022-10-16T15:03:14;100906.47;;;20.62
70333;BMP280;57747;43.548;-5.704;2022-10-16T15:05:40;100919.28;;;21.02
70333;BMP280;57747;43.548;-5.704;2022-10-16T15:08:05;100922.31;;;21.76
70333;BMP280;57747;43.548;-5.704;2022-10-16T15:10:33;100935.69;;;21.97
70333;BMP280;57747;43.548;-5.704;2022-10-16T15:13:00;100934.66;;;22.02
70333;BMP280;57747;43.548;-5.704;2022-10-16T15:15:35;100921.63;;;21.95
70333;BMP280;57747;43.548;-5.704;2022-10-16T15:18:02;100915.38;;;21.95
70333;BMP280;57747;43.548;-5.704;2022-10-16T15:20:30;100931.72;;;22.11
70333;BMP280;57747;43.548;-5.704;2022-10-16T15:23:03;100937.06;;;22.23
70333;BMP280;57747;43.548;-5.704;2022-10-16T15:25:42;100927.19;;;22.34
70333;BMP280;57747;43.548;-5.704;2022-10-16T15:28:09;100937.28;;;21.83
70333;BMP280;57747;43.548;-5.704;2022-10-16T15:30:35;100935.06;;;22.39
70333;BMP280;57747;43.548;-5.704;2022-10-16T15:33:03;100938.44;;;22.52
70333;BMP280;57747;43.548;-5.704;2022-10-16T15:35:29;100935.59;;;22.65
70333;BMP280;57747;43.548;-5.704;2022-10-16T15:37:55;100938.47;;;22.91
70333;BMP280;57747;43.548;-5.704;2022-10-16T15:40:21;100927.09;;;23.09
70333;BMP280;57747;43.548;-5.704;2022-10-16T15:42:48;100924.31;;;23.55
70333;BMP280;57747;43.548;-5.704;2022-10-16T15:45:15;100920.03;;;23.54